• Join FlightAware (Why Join?)
  • Login
  • US Flag 
03:26PM EST


 

Airport Tracker/Info


-or-


 

Live Flight TrackerFlight Track Log ✈ ASQ5685 ✈ 25-Jul-2013 ✈ KATL - KIAD

Flight Track Log - Related Links

Times and Time Zones

All times are in EDT time to prevent confusion due to time zone crossing. See the ASQ5685 flight status page for this flight to view local times or setup timezone preferences in your user account.

Time Position Orientation Groundspeed Altitude Reporting Facility
EDT Latitude Longitude Course Direction KTS MPH feet Rate Location/Type
09:30AM 33.6333 -84.4500 48° Northeast 173 199 1,900  Level Atlanta TRACON
09:31AM 33.6167 -84.5167 253° West 236 272 2,900 1,380 Climbing Atlanta TRACON
09:31AM 33.5928 -84.5700 242° Southwest 333 383 4,000 2,160 Climbing Atlanta Center
09:32AM 33.5175 -84.5919 194° South 268 308 6,400 2,340 Climbing Atlanta Center
09:33AM 33.7645 -83.9537 54° Northeast  Level FlightAware Approximate
09:33AM 33.4572 -84.5317 140° Southeast 321 369 8,700  Level Atlanta Center
09:34AM 33.8248 -83.8533 54° Northeast  Level FlightAware Approximate
09:34AM 33.4556 -84.4322 91° East 306 352 10,800  Level Atlanta Center
09:35AM 33.8876 -83.7554 48° Northeast  Level FlightAware Approximate
09:35AM 33.4558 -84.3228 90° East 305 351 12,100  Level Atlanta Center
09:37AM 33.6064 -84.1786 39° Northeast 343 395 14,700 1,200 Climbing Atlanta Center
09:38AM 33.6961 -84.1211 28° Northeast 357 411 15,800 960 Climbing Atlanta Center
09:39AM 33.7672 -84.0264 48° Northeast 365 420 16,700 1,080 Climbing Atlanta Center
09:40AM 33.8256 -83.9139 58° Northeast 383 441 18,000 1,200 Climbing Atlanta Center
09:41AM 33.8839 -83.7986 59° Northeast 392 451 19,200 1,080 Climbing Atlanta Center
09:42AM 33.9461 -83.6908 55° Northeast 397 457 20,200 960 Climbing Atlanta Center
09:43AM 34.0125 -83.5828 53° Northeast 397 457 21,200 900 Climbing Atlanta Center
09:44AM 34.0728 -83.4869 53° Northeast 397 457 22,000 900 Climbing Atlanta Center
09:45AM 34.1389 -83.3786 54° Northeast 397 457 23,100 1,020 Climbing Atlanta Center
09:46AM 34.2072 -83.2728 52° Northeast 397 457 24,100 960 Climbing Atlanta Center
09:47AM 34.2733 -83.1614 54° Northeast 397 457 25,100 840 Climbing Atlanta Center
09:48AM 34.3414 -83.0575 52° Northeast 391 450 25,800 600 Climbing Atlanta Center
09:49AM 34.4072 -82.9436 55° Northeast 398 458 26,300 480 Climbing Atlanta Center
09:50AM 34.4814 -82.8342 51° Northeast 408 470 26,800 300 Climbing Atlanta Center
09:51AM 34.5633 -82.7069 52° Northeast 420 483 27,000 60 Climbing Atlanta Center
09:52AM 34.6308 -82.5847 56° Northeast 430 495 27,000  Level Atlanta Center
09:53AM 34.7086 -82.4647 52° Northeast 443 510 27,000  Level Atlanta Center
09:54AM 34.7864 -82.3342 54° Northeast 455 524 27,000  Level Atlanta Center
09:55AM 34.8639 -82.2111 52° Northeast 460 529 27,000  Level Atlanta Center
09:56AM 34.9350 -82.0956 53° Northeast 465 535 27,000  Level Atlanta Center
09:57AM 35.0144 -81.9669 53° Northeast 472 543 27,000  Level Atlanta Center
09:58AM 35.0892 -81.8278 57° Northeast 478 550 27,000  Level Atlanta Center
09:59AM 35.1617 -81.6886 57° Northeast 478 550 27,000  Level Atlanta Center
10:00AM 35.2319 -81.5519 58° Northeast 484 557 27,000  Level Atlanta Center
10:01AM 35.3064 -81.4122 57° Northeast 489 563 27,000  Level Atlanta Center
10:02AM 35.3783 -81.2725 58° Northeast 489 563 27,000  Level Atlanta Center
10:03AM 35.4503 -81.1325 58° Northeast 489 563 27,000  Level Atlanta Center
10:04AM 35.5239 -80.9919 57° Northeast 489 563 27,000  Level Atlanta Center
10:05AM 35.5978 -80.8539 57° Northeast 483 556 27,000  Level Atlanta Center
10:06AM 35.6692 -80.7156 58° Northeast 483 556 27,000  Level Atlanta Center
10:07AM 35.7403 -80.5747 58° Northeast 488 562 27,000  Level Atlanta Center
10:08AM 35.8136 -80.4358 57° Northeast 488 562 27,000  Level Atlanta Center
10:11AM 35.9744 -80.1194 58° Northeast 494 568 27,000  Level Washington Center
10:12AM 36.0442 -79.9847 57° Northeast 479 551 27,000  Level Washington Center
10:13AM 36.1200 -79.8478 56° Northeast 479 551 27,000  Level Washington Center
10:14AM 36.1914 -79.7203 55° Northeast 484 557 27,000  Level Washington Center
10:15AM 36.2778 -79.5675 55° Northeast 492 566 27,000  Level Washington Center
10:16AM 36.3553 -79.4347 54° Northeast 487 560 27,000 -180 Level Washington Center
10:17AM 36.4239 -79.3039 57° Northeast 487 560 26,700 -480 Descending Washington Center
10:18AM 36.5122 -79.1453 55° Northeast 492 566 26,100 -600 Descending Washington Center
10:19AM 36.5978 -79.0044 53° Northeast 497 572 25,600 -480 Descending Washington Center
10:20AM 36.6728 -78.8550 58° Northeast 502 578 25,200 -360 Descending Washington Center
10:21AM 36.7472 -78.7258 54° Northeast 508 585 25,000 -120 Descending Washington Center
10:22AM 36.8239 -78.5861 56° Northeast 503 579 25,000 -480 Level Washington Center
10:23AM 36.9308 -78.4761 39° Northeast 487 560 24,100 -1,080 Descending Washington Center
10:24AM 37.0647 -78.3692 33° Northeast 499 574 22,900 -1,080 Descending Washington Center
10:25AM 37.1775 -78.2767 33° Northeast 499 574 22,000 -480 Descending Washington Center
10:26AM 37.2922 -78.1842 33° Northeast 493 567 22,000  Level Washington Center
10:27AM 37.4067 -78.0967 31° Northeast 482 555 22,000  Level Washington Center
10:28AM 37.5192 -78.0033 33° Northeast 482 555 22,000 -180 Level Washington Center
10:29AM 37.6275 -77.9097 34° Northeast 482 555 21,700 -1,500 Descending Washington Center
10:30AM 37.7311 -77.8236 33° Northeast 458 527 19,000 -2,580 Descending Washington Center
10:31AM 37.8244 -77.7422 35° Northeast 423 487 16,700 -2,220 Descending Washington Center
10:32AM 37.9153 -77.6711 32° Northeast 393 452 14,700 -1,740 Descending Washington Center
10:33AM 37.9981 -77.5969 35° Northeast 368 423 13,300 -1,380 Descending Washington Center
10:34AM 38.0719 -77.5408 31° Northeast 358 412 12,000 -1,440 Descending Washington Center
10:35AM 38.1481 -77.4797 32° Northeast 342 394 10,500 -1,020 Descending Washington Center
10:36AM 38.2197 -77.4233 32° Northeast 321 369 10,000 -720 Descending Washington Center
10:37AM 38.2956 -77.3803 24° Northeast 298 343 9,100 -960 Descending Washington Center
10:38AM 38.3708 -77.3608 11° North 291 335 8,100 -1,020 Descending Washington Center
10:39AM 38.4389 -77.4128 329° Northwest 260 299 7,100 -1,020 Descending Washington Center
10:40AM 38.5092 -77.4464 339° North 260 299 6,100 -1,020 Descending Washington Center
10:41AM 38.5822 -77.4456 North 260 299 5,100 -1,080 Descending Washington Center
10:41AM 38.6333 -77.4333 11° North 269 310 4,500 -780 Descending Potomac TRACON
10:42AM 38.7000 -77.4333 360° North 254 292 4,000 -540 Descending Potomac TRACON
10:43AM 38.7667 -77.4333 360° North 226 260 3,500 -540 Descending Potomac TRACON